createdAt,value
2022-10-13T00:01:36.954Z,63.80
2022-10-13T00:04:04.893Z,63.68
2022-10-13T00:06:32.517Z,63.67
2022-10-13T00:09:00.334Z,63.69
2022-10-13T00:11:29.762Z,63.76
2022-10-13T00:14:03.732Z,63.74
2022-10-13T00:16:34.244Z,63.88
2022-10-13T00:19:02.349Z,63.97
2022-10-13T00:21:30.355Z,63.84
2022-10-13T00:23:58.103Z,63.97
2022-10-13T00:26:26.892Z,63.93
2022-10-13T00:28:56.341Z,63.85
2022-10-13T00:31:27.352Z,63.98
2022-10-13T00:33:56.175Z,63.95
2022-10-13T00:36:24.714Z,64.03
2022-10-13T00:38:52.975Z,64.07
2022-10-13T00:41:21.223Z,64.08
2022-10-13T00:44:00.321Z,63.82
2022-10-13T00:46:30.913Z,63.93
2022-10-13T00:49:14.408Z,64.22
2022-10-13T00:51:49.953Z,64.25
2022-10-13T00:54:22.990Z,64.12
2022-10-13T00:56:52.276Z,64.22
2022-10-13T00:59:24.447Z,64.25
2022-10-13T01:01:54.767Z,64.13
2022-10-13T01:04:25.755Z,64.08
2022-10-13T01:06:59.873Z,64.19
2022-10-13T01:09:27.524Z,64.24
2022-10-13T01:12:24.204Z,64.07
2022-10-13T01:15:28.100Z,64.16
2022-10-13T01:18:26.823Z,64.03
2022-10-13T01:21:16.102Z,64.13
2022-10-13T01:24:08.173Z,64.28
2022-10-13T01:27:02.993Z,64.18
2022-10-13T01:30:08.101Z,64.32
2022-10-13T01:32:53.674Z,64.24
2022-10-13T01:35:31.793Z,64.25
2022-10-13T01:38:17.063Z,64.39
2022-10-13T01:40:54.814Z,64.68
2022-10-13T01:43:29.851Z,64.84
2022-10-13T01:46:14.130Z,64.71
2022-10-13T01:48:44.213Z,64.85
2022-10-13T01:51:16.809Z,64.70
2022-10-13T01:53:46.421Z,64.94
2022-10-13T01:56:14.536Z,65.01
2022-10-13T01:58:42.752Z,65.01
2022-10-13T02:01:31.315Z,65.02
2022-10-13T02:04:17.077Z,65.06
2022-10-13T02:07:23.744Z,64.92
2022-10-13T02:10:23.872Z,65.11
2022-10-13T02:13:00.906Z,65.07
2022-10-13T02:15:39.942Z,65.26
2022-10-13T02:18:11.197Z,65.06
2022-10-13T02:20:41.732Z,65.05
2022-10-13T02:23:13.261Z,64.92
2022-10-13T02:25:42.105Z,65.14
2022-10-13T02:28:11.211Z,65.04
2022-10-13T02:30:44.464Z,64.89
2022-10-13T02:33:13.353Z,64.76
2022-10-13T02:35:42.255Z,65.03
2022-10-13T02:38:10.650Z,64.79
2022-10-13T02:40:38.305Z,64.78
2022-10-13T02:43:05.996Z,64.86
2022-10-13T02:45:33.756Z,65.10
2022-10-13T02:48:01.583Z,65.43
2022-10-13T02:50:29.773Z,65.42
2022-10-13T02:52:59.523Z,65.06
2022-10-13T02:55:27.190Z,65.07
2022-10-13T02:57:57.032Z,65.09
2022-10-13T03:00:24.960Z,65.02
2022-10-13T03:02:52.805Z,65.16
2022-10-13T03:05:20.412Z,65.18
2022-10-13T03:07:48.213Z,65.04
2022-10-13T03:10:16.418Z,64.92
2022-10-13T03:12:45.305Z,65.10
2022-10-13T03:15:13.079Z,65.04
2022-10-13T03:17:41.284Z,65.27
2022-10-13T03:20:09.493Z,65.09
2022-10-13T03:22:37.222Z,64.92
2022-10-13T03:25:05.514Z,65.27
2022-10-13T03:27:33.773Z,64.91
2022-10-13T03:30:01.623Z,65.00
2022-10-13T03:32:32.146Z,65.02
2022-10-13T03:34:59.778Z,65.14
2022-10-13T03:37:29.706Z,64.93
2022-10-13T03:39:57.441Z,65.04
2022-10-13T03:42:25.054Z,65.29
2022-10-13T03:44:56.393Z,65.09
2022-10-13T03:47:24.410Z,65.08
2022-10-13T03:49:54.858Z,65.21
2022-10-13T03:52:23.275Z,65.34
2022-10-13T03:54:50.880Z,65.58
2022-10-13T03:57:18.648Z,65.81
2022-10-13T03:59:46.190Z,65.88
2022-10-13T04:02:14.062Z,65.86
2022-10-13T04:04:41.881Z,65.87
2022-10-13T04:07:09.518Z,65.76
2022-10-13T04:09:37.132Z,65.58
2022-10-13T04:12:05.614Z,65.78
2022-10-13T04:14:33.305Z,65.78
2022-10-13T04:17:09.152Z,66.19
2022-10-13T04:19:36.935Z,66.16
2022-10-13T04:22:06.451Z,66.26
2022-10-13T04:24:34.262Z,66.28
2022-10-13T04:27:01.940Z,66.08
2022-10-13T04:29:29.693Z,66.29
2022-10-13T04:31:59.783Z,66.36
2022-10-13T04:34:36.437Z,66.42
2022-10-13T04:37:07.063Z,66.28
2022-10-13T04:39:34.813Z,66.64
2022-10-13T04:42:02.506Z,66.65
2022-10-13T04:44:31.207Z,66.81
2022-10-13T04:47:05.175Z,66.94
2022-10-13T04:49:32.903Z,67.07
2022-10-13T04:52:06.743Z,67.08
2022-10-13T04:54:34.365Z,66.78
2022-10-13T04:57:02.009Z,66.58
2022-10-13T04:59:29.735Z,66.42
2022-10-13T05:01:57.280Z,66.20
2022-10-13T05:04:27.781Z,66.37
2022-10-13T05:07:19.226Z,66.28
2022-10-13T05:09:43.882Z,66.19
2022-10-13T05:12:13.762Z,66.12
2022-10-13T05:14:41.383Z,65.80
2022-10-13T05:17:09.277Z,65.59
2022-10-13T05:19:37.077Z,65.71
2022-10-13T05:22:04.868Z,65.60
2022-10-13T05:24:38.918Z,65.33
2022-10-13T05:27:10.342Z,65.32
2022-10-13T05:29:38.834Z,65.28
2022-10-13T05:32:18.921Z,65.15
2022-10-13T05:34:49.864Z,65.11
2022-10-13T05:37:18.505Z,65.32
2022-10-13T05:39:48.853Z,65.20
2022-10-13T05:42:17.014Z,65.34
2022-10-13T05:44:44.892Z,65.32
2022-10-13T05:47:12.680Z,65.47
2022-10-13T05:49:41.083Z,65.23
2022-10-13T05:52:12.659Z,65.40
2022-10-13T05:54:46.801Z,65.44
2022-10-13T05:57:31.274Z,65.44
2022-10-13T06:00:05.913Z,65.20
2022-10-13T06:02:51.453Z,65.46
2022-10-13T06:05:36.360Z,65.55
2022-10-13T06:08:10.104Z,65.32
2022-10-13T06:10:38.274Z,65.31
2022-10-13T06:13:09.754Z,65.30
2022-10-13T06:15:43.413Z,65.42
2022-10-13T06:18:11.298Z,65.14
2022-10-13T06:21:09.125Z,65.06
2022-10-13T06:23:45.809Z,64.96
2022-10-13T06:26:13.723Z,64.72
2022-10-13T06:28:42.658Z,64.81
2022-10-13T06:31:12.922Z,64.42
2022-10-13T06:33:49.019Z,64.14
2022-10-13T06:36:22.745Z,63.57
2022-10-13T06:38:53.303Z,63.41
2022-10-13T06:41:22.090Z,63.00
2022-10-13T06:43:49.842Z,62.82
2022-10-13T06:46:17.853Z,62.83
2022-10-13T06:48:45.591Z,62.01
2022-10-13T06:51:13.455Z,61.78
2022-10-13T06:53:41.475Z,61.43
2022-10-13T06:56:10.026Z,61.06
2022-10-13T06:58:38.492Z,61.17
2022-10-13T07:01:18.480Z,60.70
2022-10-13T07:03:49.676Z,60.73
2022-10-13T07:06:19.945Z,60.54
2022-10-13T07:08:52.302Z,60.29
2022-10-13T07:11:29.186Z,60.23
2022-10-13T07:13:57.206Z,60.10
2022-10-13T07:16:24.952Z,59.50
2022-10-13T07:18:52.712Z,59.19
2022-10-13T07:21:20.322Z,58.51
2022-10-13T07:23:56.678Z,58.12
2022-10-13T07:26:24.473Z,57.77
2022-10-13T07:28:53.113Z,56.79
2022-10-13T07:31:21.373Z,56.95
2022-10-13T07:33:50.597Z,56.75
2022-10-13T07:36:27.825Z,56.26
2022-10-13T07:38:58.820Z,56.22
2022-10-13T07:41:26.603Z,55.86
2022-10-13T07:43:57.352Z,55.59
2022-10-13T07:46:27.915Z,55.51
2022-10-13T07:48:55.531Z,55.10
2022-10-13T07:51:29.206Z,55.17
2022-10-13T07:53:57.064Z,54.95
2022-10-13T07:56:24.752Z,54.74
2022-10-13T07:58:52.436Z,54.65
2022-10-13T08:04:35.506Z,54.28
2022-10-13T08:07:05.908Z,53.96
2022-10-13T08:09:35.194Z,54.08
2022-10-13T08:12:03.381Z,53.64
2022-10-13T08:14:31.539Z,53.36
2022-10-13T08:16:59.391Z,53.36
2022-10-13T08:19:28.538Z,53.15
2022-10-13T08:22:09.170Z,52.52
2022-10-13T08:24:37.774Z,52.68
2022-10-13T08:27:17.537Z,52.58
2022-10-13T08:29:48.791Z,52.26
2022-10-13T08:32:18.487Z,52.37
2022-10-13T08:34:46.401Z,52.20
2022-10-13T08:37:19.259Z,51.88
2022-10-13T08:39:47.395Z,51.48
2022-10-13T08:42:21.091Z,51.22
2022-10-13T08:45:28.373Z,51.27
2022-10-13T08:47:54.783Z,51.38
2022-10-13T08:50:25.529Z,51.32
2022-10-13T08:53:00.800Z,50.89
2022-10-13T08:55:38.845Z,50.79
2022-10-13T08:58:31.183Z,50.29
2022-10-13T09:01:15.238Z,50.17
2022-10-13T09:03:55.944Z,49.70
2022-10-13T09:06:31.944Z,49.68
2022-10-13T09:09:03.395Z,49.61
2022-10-13T09:11:40.653Z,49.37
2022-10-13T09:14:11.526Z,49.50
2022-10-13T09:16:41.886Z,49.47
2022-10-13T09:19:34.411Z,49.23
2022-10-13T09:22:24.293Z,48.70
2022-10-13T09:25:13.062Z,48.75
2022-10-13T09:28:01.424Z,48.64
2022-10-13T09:31:31.683Z,48.47
2022-10-13T09:34:22.803Z,47.86
2022-10-13T09:37:05.090Z,47.72
2022-10-13T09:39:34.182Z,47.86
2022-10-13T09:42:28.042Z,47.25
2022-10-13T09:45:25.741Z,47.23
2022-10-13T09:47:59.923Z,46.65
2022-10-13T09:50:30.265Z,46.61
2022-10-13T09:53:49.621Z,45.64
2022-10-13T09:56:25.314Z,45.03
2022-10-13T09:59:23.551Z,45.27
2022-10-13T10:01:54.949Z,44.96
2022-10-13T10:04:43.423Z,44.78
2022-10-13T10:07:16.258Z,44.97
2022-10-13T10:10:23.240Z,44.56
2022-10-13T10:12:51.574Z,44.74
2022-10-13T10:15:33.344Z,44.10
2022-10-13T10:18:14.635Z,43.56
2022-10-13T10:20:55.655Z,43.44
2022-10-13T10:23:35.840Z,43.45
2022-10-13T10:26:20.770Z,43.27
2022-10-13T10:29:08.997Z,43.67
2022-10-13T10:32:37.596Z,43.42
2022-10-13T10:35:58.192Z,42.97
2022-10-13T10:38:48.688Z,43.19
2022-10-13T10:41:32.927Z,43.21
2022-10-13T10:44:08.002Z,42.95
2022-10-13T10:46:40.642Z,42.75
2022-10-13T10:49:22.586Z,42.63
2022-10-13T10:51:50.414Z,42.47
2022-10-13T10:54:20.753Z,42.19
2022-10-13T10:57:10.494Z,42.31
2022-10-13T11:00:15.837Z,41.85
2022-10-13T11:03:13.623Z,42.29
2022-10-13T11:06:00.752Z,42.07
2022-10-13T11:09:06.304Z,41.90
2022-10-13T11:11:39.501Z,42.01
2022-10-13T11:14:27.105Z,41.83
2022-10-13T11:17:06.985Z,41.70
2022-10-13T11:19:36.934Z,41.87
2022-10-13T11:22:04.634Z,42.39
2022-10-13T11:24:36.289Z,41.85
2022-10-13T11:27:15.863Z,41.88
2022-10-13T11:29:51.828Z,41.82
2022-10-13T11:32:45.042Z,41.48
2022-10-13T11:35:12.745Z,41.68
2022-10-13T11:38:16.818Z,41.57
2022-10-13T11:41:31.091Z,42.06
2022-10-13T11:44:19.747Z,41.85
2022-10-13T11:47:08.480Z,42.15
2022-10-13T11:49:58.842Z,41.91
2022-10-13T11:52:42.201Z,42.04
2022-10-13T11:55:16.788Z,41.54
2022-10-13T11:58:23.319Z,41.62
2022-10-13T12:01:01.338Z,41.26
2022-10-13T12:03:35.273Z,41.40
2022-10-13T12:06:21.077Z,40.98
2022-10-13T12:09:33.803Z,41.00
2022-10-13T12:12:12.879Z,41.28
2022-10-13T12:14:48.266Z,41.23
2022-10-13T12:17:36.103Z,41.05
2022-10-13T12:20:30.770Z,40.99
2022-10-13T12:23:17.555Z,40.96
2022-10-13T12:25:57.573Z,41.47
2022-10-13T12:28:50.418Z,41.90
2022-10-13T12:31:27.198Z,41.59
2022-10-13T12:33:57.679Z,41.52
2022-10-13T12:39:26.104Z,41.66
2022-10-13T12:41:56.406Z,41.67
2022-10-13T12:44:27.179Z,41.66
2022-10-13T12:46:59.789Z,42.06
2022-10-13T12:49:33.337Z,41.69
2022-10-13T12:52:10.134Z,41.73
2022-10-13T12:54:40.315Z,41.87
2022-10-13T12:57:19.291Z,41.84
2022-10-13T12:59:47.913Z,41.70
2022-10-13T13:02:28.344Z,42.07
2022-10-13T13:04:56.254Z,41.61
2022-10-13T13:07:26.920Z,42.61
2022-10-13T13:10:09.527Z,42.21
2022-10-13T13:12:38.274Z,42.29
2022-10-13T13:15:35.138Z,42.48
2022-10-13T13:18:42.540Z,42.51
2022-10-13T13:21:13.755Z,42.61
2022-10-13T13:23:51.005Z,42.58
2022-10-13T13:26:23.916Z,42.72
2022-10-13T13:28:54.419Z,42.60
2022-10-13T13:31:24.796Z,42.77
2022-10-13T13:33:53.244Z,42.72
2022-10-13T13:36:23.597Z,42.64
2022-10-13T13:38:54.704Z,42.56
2022-10-13T13:41:23.043Z,42.29
2022-10-13T13:43:50.797Z,42.66
2022-10-13T13:46:22.461Z,42.74
2022-10-13T13:48:50.996Z,42.70
2022-10-13T13:51:18.714Z,42.43
2022-10-13T13:53:46.487Z,42.87
2022-10-13T13:56:16.823Z,42.92
2022-10-13T13:58:45.348Z,42.87
2022-10-13T14:01:13.821Z,42.93
2022-10-13T14:03:42.050Z,42.76
2022-10-13T14:06:20.875Z,42.95
2022-10-13T14:08:49.073Z,43.32
2022-10-13T14:11:16.776Z,43.46
2022-10-13T14:13:44.583Z,43.51
2022-10-13T14:16:17.895Z,43.66
2022-10-13T14:18:45.708Z,44.12
2022-10-13T14:21:13.399Z,44.11
2022-10-13T14:23:45.820Z,44.28
2022-10-13T14:26:15.779Z,44.26
2022-10-13T14:28:45.096Z,44.45
2022-10-13T14:31:13.047Z,44.30
2022-10-13T14:33:41.836Z,44.26
2022-10-13T14:36:10.107Z,44.40
2022-10-13T14:38:37.835Z,44.31
2022-10-13T14:41:06.831Z,44.50
2022-10-13T14:43:34.438Z,44.56
2022-10-13T14:46:06.826Z,44.67
2022-10-13T14:48:35.998Z,44.71
2022-10-13T14:51:07.947Z,44.66
2022-10-13T14:53:44.531Z,44.83
2022-10-13T14:56:21.419Z,45.01
2022-10-13T14:58:54.913Z,44.96
2022-10-13T15:01:22.849Z,45.14
2022-10-13T15:03:50.700Z,45.10
2022-10-13T15:06:21.536Z,44.93
2022-10-13T15:08:49.933Z,45.30
2022-10-13T15:11:19.087Z,45.35
2022-10-13T15:13:46.833Z,45.67
2022-10-13T15:16:18.340Z,45.48
2022-10-13T15:18:47.430Z,45.38
2022-10-13T15:21:19.266Z,45.63
2022-10-13T15:23:47.973Z,45.99
2022-10-13T15:26:17.555Z,45.88
2022-10-13T15:28:47.704Z,45.91
2022-10-13T15:31:16.435Z,45.96
2022-10-13T15:33:48.914Z,46.44
2022-10-13T15:36:16.683Z,46.54
2022-10-13T15:38:44.357Z,46.59
2022-10-13T15:41:12.725Z,46.52
2022-10-13T15:43:40.704Z,46.80
2022-10-13T15:46:13.053Z,47.01
2022-10-13T15:48:40.825Z,47.24
2022-10-13T15:51:16.956Z,47.25
2022-10-13T15:53:46.955Z,47.49
2022-10-13T15:56:17.051Z,47.72
2022-10-13T15:58:45.867Z,47.52
2022-10-13T16:01:14.702Z,47.69
2022-10-13T16:03:43.028Z,48.10
2022-10-13T16:06:12.675Z,48.22
2022-10-13T16:08:44.360Z,48.08
2022-10-13T16:11:14.226Z,48.21
2022-10-13T16:13:45.648Z,48.16
2022-10-13T16:16:14.372Z,48.42
2022-10-13T16:18:42.609Z,48.46
2022-10-13T16:21:26.046Z,48.74
2022-10-13T16:23:53.867Z,49.08
2022-10-13T16:26:22.473Z,49.11
2022-10-13T16:28:56.890Z,49.24
2022-10-13T16:31:25.769Z,49.32
2022-10-13T16:33:58.408Z,49.78
2022-10-13T16:36:26.488Z,49.86
2022-10-13T16:38:55.256Z,50.05
2022-10-13T16:41:24.089Z,50.30
2022-10-13T16:43:51.923Z,50.29
2022-10-13T16:46:20.717Z,50.37
2022-10-13T16:48:48.934Z,51.16
2022-10-13T16:51:23.634Z,50.66
2022-10-13T16:53:53.112Z,50.78
2022-10-13T16:56:24.639Z,50.92
2022-10-13T16:58:57.897Z,51.16
2022-10-13T17:01:26.466Z,51.23
2022-10-13T17:03:54.732Z,51.19
2022-10-13T17:06:25.678Z,51.41
2022-10-13T17:09:03.529Z,51.37
2022-10-13T17:11:33.037Z,51.59
2022-10-13T17:14:01.866Z,51.74
2022-10-13T17:16:34.177Z,51.79
2022-10-13T17:19:02.518Z,51.90
2022-10-13T17:21:48.205Z,51.84
2022-10-13T17:24:17.152Z,51.74
2022-10-13T17:26:44.913Z,51.86
2022-10-13T17:29:12.813Z,51.93
2022-10-13T17:31:40.659Z,51.90
2022-10-13T17:34:09.576Z,52.13
2022-10-13T17:36:37.876Z,52.26
2022-10-13T17:39:14.749Z,52.35
2022-10-13T17:41:43.524Z,52.47
2022-10-13T17:44:11.868Z,52.61
2022-10-13T17:46:39.982Z,52.64
2022-10-13T17:49:10.928Z,52.76
2022-10-13T17:51:39.826Z,52.86
2022-10-13T17:54:12.964Z,52.84
2022-10-13T17:56:42.578Z,53.04
2022-10-13T17:59:10.435Z,52.98
2022-10-13T18:01:38.866Z,53.25
2022-10-13T18:04:11.351Z,53.25
2022-10-13T18:06:41.328Z,53.35
2022-10-13T18:09:13.315Z,53.50
2022-10-13T18:11:46.902Z,53.55
2022-10-13T18:14:21.666Z,53.72
2022-10-13T18:16:50.695Z,53.79
2022-10-13T18:19:21.579Z,53.95
2022-10-13T18:21:49.702Z,53.97
2022-10-13T18:24:17.464Z,54.08
2022-10-13T18:26:46.492Z,54.16
2022-10-13T18:29:14.323Z,54.19
2022-10-13T18:31:42.857Z,54.19
2022-10-13T18:34:16.134Z,54.10
2022-10-13T18:36:50.752Z,54.17
2022-10-13T18:39:29.141Z,54.49
2022-10-13T18:41:57.777Z,54.40
2022-10-13T18:44:39.957Z,54.35
2022-10-13T18:47:08.191Z,54.51
2022-10-13T18:49:35.971Z,54.70
2022-10-13T18:52:04.075Z,54.81
2022-10-13T18:54:31.878Z,54.72
2022-10-13T18:56:59.835Z,54.74
2022-10-13T18:59:27.678Z,54.83
2022-10-13T19:01:55.478Z,54.90
2022-10-13T19:04:24.038Z,54.99
2022-10-13T19:06:53.409Z,55.05
2022-10-13T19:09:21.788Z,55.08
2022-10-13T19:11:49.610Z,55.14
2022-10-13T19:14:19.038Z,55.14
2022-10-13T19:16:46.887Z,55.21
2022-10-13T19:19:14.955Z,55.52
2022-10-13T19:21:42.903Z,55.51
2022-10-13T19:24:12.021Z,55.56
2022-10-13T19:26:39.788Z,55.53
2022-10-13T19:29:11.207Z,55.52
2022-10-13T19:31:41.558Z,55.74
2022-10-13T19:34:11.401Z,55.61
2022-10-13T19:36:45.055Z,55.83
2022-10-13T19:39:19.596Z,56.00
2022-10-13T19:41:48.425Z,55.76
2022-10-13T19:44:17.184Z,55.69
2022-10-13T19:46:46.516Z,56.07
2022-10-13T19:49:17.209Z,56.01
2022-10-13T19:51:49.411Z,56.15
2022-10-13T19:54:19.116Z,56.12
2022-10-13T19:56:49.270Z,56.03
2022-10-13T19:59:17.897Z,56.00
2022-10-13T20:01:45.816Z,55.97
2022-10-13T20:04:14.796Z,56.28
2022-10-13T20:06:44.865Z,56.32
2022-10-13T20:09:13.286Z,56.46
2022-10-13T20:11:42.370Z,56.44
2022-10-13T20:14:10.857Z,56.52
2022-10-13T20:16:38.555Z,56.61
2022-10-13T20:19:07.117Z,56.82
2022-10-13T20:21:34.935Z,56.87
2022-10-13T20:24:02.692Z,56.91
2022-10-13T20:26:30.344Z,57.20
2022-10-13T20:28:58.451Z,56.92
2022-10-13T20:31:27.004Z,57.23
2022-10-13T20:33:56.283Z,57.32
2022-10-13T20:36:26.271Z,57.41
2022-10-13T20:38:55.168Z,57.53
2022-10-13T20:41:28.738Z,57.70
2022-10-13T20:43:58.329Z,57.69
2022-10-13T20:46:26.918Z,57.70
2022-10-13T20:49:11.772Z,57.70
2022-10-13T20:51:40.919Z,57.79
2022-10-13T20:54:09.668Z,57.85
2022-10-13T20:56:37.605Z,57.76
2022-10-13T20:59:11.763Z,57.89
2022-10-13T21:01:40.798Z,58.11
2022-10-13T21:04:08.725Z,58.13
2022-10-13T21:06:36.462Z,58.18
2022-10-13T21:09:05.810Z,58.46
2022-10-13T21:11:58.508Z,58.64
2022-10-13T21:14:36.080Z,58.50
2022-10-13T21:17:03.990Z,58.38
2022-10-13T21:19:32.147Z,58.41
2022-10-13T21:22:00.078Z,58.40
2022-10-13T21:24:27.869Z,58.42
2022-10-13T21:26:55.668Z,58.38
2022-10-13T21:29:29.777Z,58.33
2022-10-13T21:31:57.595Z,58.39
2022-10-13T21:34:25.435Z,58.12
2022-10-13T21:36:53.459Z,58.22
2022-10-13T21:39:23.058Z,58.30
2022-10-13T21:41:50.725Z,58.15
2022-10-13T21:44:18.418Z,58.34
2022-10-13T21:46:53.082Z,58.18
2022-10-13T21:49:21.659Z,58.36
2022-10-13T21:51:49.499Z,58.14
2022-10-13T21:54:17.265Z,58.41
2022-10-13T21:56:45.178Z,58.31
2022-10-13T21:59:13.968Z,58.47
2022-10-13T22:01:42.478Z,58.43
2022-10-13T22:04:14.816Z,58.46
2022-10-13T22:06:43.047Z,58.56
2022-10-13T22:09:14.288Z,58.63
2022-10-13T22:11:43.258Z,58.59
2022-10-13T22:14:14.175Z,58.55
2022-10-13T22:16:45.884Z,58.70
2022-10-13T22:19:15.338Z,58.82
2022-10-13T22:21:47.404Z,58.78
2022-10-13T22:24:17.699Z,58.73
2022-10-13T22:26:47.532Z,58.89
2022-10-13T22:29:19.639Z,58.93
2022-10-13T22:31:48.904Z,58.91
2022-10-13T22:34:25.309Z,59.07
2022-10-13T22:36:54.853Z,59.11
2022-10-13T22:39:25.548Z,59.29
2022-10-13T22:41:54.120Z,59.18
2022-10-13T22:44:22.058Z,59.28
2022-10-13T22:46:50.819Z,59.12
2022-10-13T22:49:43.557Z,59.19
2022-10-13T22:52:11.908Z,59.25
2022-10-13T22:55:04.800Z,59.33
2022-10-13T22:57:33.168Z,59.68
2022-10-13T23:00:00.930Z,59.77
2022-10-13T23:02:28.821Z,59.59
2022-10-13T23:04:56.555Z,59.82
2022-10-13T23:07:29.764Z,59.99
2022-10-13T23:10:22.557Z,59.94
2022-10-13T23:12:50.889Z,59.85
2022-10-13T23:15:21.864Z,60.06
2022-10-13T23:17:49.657Z,60.16
2022-10-13T23:20:17.561Z,60.08
2022-10-13T23:22:45.585Z,60.30
2022-10-13T23:25:13.294Z,60.25
2022-10-13T23:27:41.783Z,60.25
2022-10-13T23:30:10.068Z,60.23
2022-10-13T23:32:38.792Z,60.18
2022-10-13T23:35:06.710Z,60.11
2022-10-13T23:37:35.778Z,60.03
2022-10-13T23:40:03.922Z,60.22
2022-10-13T23:42:31.761Z,60.25
2022-10-13T23:44:59.502Z,60.29
2022-10-13T23:47:27.211Z,60.33
2022-10-13T23:49:54.809Z,60.46
2022-10-13T23:52:22.840Z,60.57
2022-10-13T23:54:50.566Z,60.51
